메인 페이지
METAR-TAF:

METAR-TAF

공항 :

New Orleans Naval Air Station Joint Reserve Base (Alvin Callender Field)

뉴올리언스, 루이지애나, 미국

위도: 29-50-14N, 경도: 090-01-28W, 고도: 0m

현재 날씨관측

예보는 23분 전, 00:55시(UTC)에 발표되었습니다.
무풍
온도 6°C
습도 93%
기압 1019 hPa
시정: 16.1km
맑음

METAR: KNBG 170055Z AUTO 00000KT 10SM CLR 06/05 A3008 RMK AO2 SLP185 T00610050 $

시각: 19:18 (01:18 UTC)

예보

예보 대상 시간: 16일 23시부터 17일 23시까지 (UTC)
6kt
시정 10km 이상
고도 25000ft 상공 구름 보통
전환 중
17일 18시부터 17일 20시까지 (UTC)
북서6kt
시정: 1714m
고도 3000ft 상공 구름 조금
고도 25000ft 상공 구름 보통

TAF: KNBG 1623/1723 35006KT 9999 SCT250 QNH3003INS BECMG 1718/1720 31006KT 9999 FEW030 SCT250 QNH3001INS AUTOMATED SENSOR METWATCH 1623 TIL 1714 T05/1712Z T17/1721Z FN20038

4,000개 이상의 공항 관측 자료 및 예보 (METAR 및 TAF 보고).

지도상에서 검색 가능한 기상관측소가 노란 점과 빨간 점으로 표시되어 있습니다.

기상관측소 명을 보려면 표시 위로 마우스를 이동하세요.

날씨 관측과 예보를 보려면 클릭하세요.

지도 변경 : 확대하려면 엑스 표시가 있는 녹색 버튼, 축소하려면 빼기 표시가 있는 녹색 버튼, 다음 페이지의 지도를 보려면 녹색 화살표를 클릭하세요.


METAR-TAF: